Shokyu Maru — JG5288 — position and weather

sailwx.info

Track history (hours):
 
Tides and Currents Weather Stations Pressure Air Temp Water Temp Dewpoint Dewpoint Depression Visibility Wind Speed Wind Dir Waves Ship Positions

Shokyu Maru

Last reported at 2015-Aug-03 06:31 UTC. Time now 2015-Aug-03 06:38 UTC.
Position N 35°28' E 140°01'.

Length 91 m; draft 3.8 m.

Type: Tanker. MMSI: 431000253.

Date/timePositionNaut miles runAvg speedWind from/ knotsBaromVisibWave heightAir tempDewpointWater temp
2015-Aug-03 06:31N 35°28' E 140°01'0 0.0
2015-Aug-03 05:31N 35°28' E 140°01'0 0.0
2015-Aug-03 04:25N 35°28' E 140°01'4 4.5
2015-Aug-03 03:33N 35°32' E 139°59'9 8.7
2015-Aug-03 02:33N 35°40' E 139°57'0 0.1
2015-Aug-03 01:07N 35°41' E 139°56'0 0.0
2015-Aug-03 00:31N 35°41' E 139°56'0 0.0
2015-Aug-02 23:31N 35°41' E 139°56'0 0.0
2015-Aug-02 22:07N 35°41' E 139°56'2 3.6
2015-Aug-02 21:33N 35°39' E 139°58'4 4.0
2015-Aug-02 20:33N 35°36' E 139°55'0 0.0
2015-Aug-02 19:24N 35°36' E 139°55'0 0.0
2015-Aug-02 18:27N 35°36' E 139°55'0 0.0
2015-Aug-02 17:33N 35°36' E 139°55'0 0.0
2015-Aug-02 16:30N 35°36' E 139°55'0 0.0
2015-Aug-02 15:33N 35°36' E 139°55'0 0.0
2015-Aug-02 14:33N 35°36' E 139°55'0 0.0
2015-Aug-02 13:33N 35°36' E 139°55'0 0.0
2015-Aug-02 12:33N 35°36' E 139°55'0 0.0
2015-Aug-02 11:33N 35°36' E 139°55'0 0.0
2015-Aug-02 10:33N 35°36' E 139°55'5 5.3
2015-Aug-02 09:33N 35°31' E 139°58'3 2.9
2015-Aug-02 08:31N 35°29' E 140°01'0 0.0
2015-Aug-02 07:31N 35°29' E 140°01'0 0.0
2015-Aug-02 06:31N 35°29' E 140°01'0 0.0
2015-Aug-02 05:22N 35°29' E 140°01'0 0.0
2015-Aug-02 04:33N 35°29' E 140°01'1 0.8
2015-Aug-02 03:33N 35°29' E 140°00'7 7.5
2015-Aug-02 02:33N 35°36' E 139°57'4 3.9
2015-Aug-02 01:28N 35°41' E 139°56'0 0.0
2015-Aug-02 00:28N 35°41' E 139°56'0 0.0
2015-Aug-01 23:25N 35°41' E 139°56'0 0.0
2015-Aug-01 22:28N 35°41' E 139°56'2 2.2
2015-Aug-01 21:33N 35°39' E 139°58'4 4.1
2015-Aug-01 20:33N 35°36' E 139°55'0 0.0
2015-Aug-01 19:33N 35°36' E 139°55'0 0.0
2015-Aug-01 18:33N 35°36' E 139°55'0 0.0
2015-Aug-01 17:33N 35°36' E 139°55'0 0.0
2015-Aug-01 16:33N 35°36' E 139°55'8 7.6
2015-Aug-01 15:33N 35°30' E 139°48'2 2.1
2015-Aug-01 14:31N 35°31' E 139°46'0 0.0
2015-Aug-01 13:31N 35°31' E 139°46'0 0.0
2015-Aug-01 12:28N 35°31' E 139°46'0 0.0
2015-Aug-01 11:31N 35°31' E 139°46'0 0.0
2015-Aug-01 10:28N 35°31' E 139°46'0 0.0
2015-Aug-01 09:31N 35°31' E 139°46'0 0.0
2015-Aug-01 08:31N 35°31' E 139°46'0 0.0
2015-Aug-01 07:31N 35°31' E 139°46'5 4.9
2015-Aug-01 06:33N 35°27' E 139°43'6 5.4
2015-Aug-01 05:32N 35°29' E 139°49'0 0.0
2015-Aug-01 04:32N 35°29' E 139°49'0 0.1
2015-Aug-01 03:33N 35°29' E 139°49'8 8.5
2015-Aug-01 02:33N 35°35' E 139°56'5 5.2
2015-Aug-01 01:32N 35°41' E 139°56'0 0.0
2015-Aug-01 00:17N 35°41' E 139°56'0 0.0
2015-Jul-31 23:30N 35°41' E 139°56'0 0.0
2015-Jul-31 22:12N 35°41' E 139°56'2 3.5
2015-Jul-31 21:33N 35°39' E 139°58'4 3.7
2015-Jul-31 20:31N 35°36' E 139°55'0 0.0
2015-Jul-31 19:31N 35°36' E 139°55'0 0.0
2015-Jul-31 18:28N 35°36' E 139°55'0 0.1
2015-Jul-31 17:28N 35°36' E 139°55'0 0.0
2015-Jul-31 16:31N 35°36' E 139°55'0 0.0
2015-Jul-31 15:28N 35°36' E 139°55'0 0.0
2015-Jul-31 14:28N 35°36' E 139°55'0 0.0
2015-Jul-31 13:28N 35°36' E 139°55'0 0.0
2015-Jul-31 12:28N 35°36' E 139°55'0 0.0
2015-Jul-31 11:28N 35°36' E 139°55'0 0.2
2015-Jul-31 10:33N 35°35' E 139°56'8 7.4
2015-Jul-31 09:28N 35°29' E 140°01'0 0.0
2015-Jul-31 08:28N 35°29' E 140°01'0 0.0
2015-Jul-31 07:28N 35°29' E 140°01'0 0.0
2015-Jul-31 06:28N 35°29' E 140°01'0 0.0
2015-Jul-31 04:22N 35°29' E 140°01'3 3.3
2015-Jul-31 03:33N 35°31' E 139°58'8 7.8
2015-Jul-31 02:33N 35°38' E 139°58'3 2.7
2015-Jul-31 01:32N 35°41' E 139°56'0 0.0
2015-Jul-30 23:20N 35°41' E 139°56'0 0.0
2015-Jul-30 22:08N 35°41' E 139°56'2 3.7
2015-Jul-30 21:33N 35°39' E 139°58'4 3.8
2015-Jul-30 20:24N 35°35' E 139°55'0 0.0
2015-Jul-30 19:33N 35°35' E 139°55'0 0.0
2015-Jul-30 18:33N 35°35' E 139°55'0 0.0
2015-Jul-30 17:33N 35°35' E 139°55'0 0.0
2015-Jul-30 16:33N 35°35' E 139°55'0 0.0
2015-Jul-30 15:33N 35°35' E 139°55'0 0.0
2015-Jul-30 14:33N 35°35' E 139°55'0 0.0
2015-Jul-30 13:30N 35°35' E 139°55'3 2.8
2015-Jul-30 12:33N 35°33' E 139°53'6 5.8
2015-Jul-30 11:32N 35°32' E 139°46'0 0.0
2015-Jul-30 10:32N 35°32' E 139°46'0 0.0
2015-Jul-30 09:29N 35°32' E 139°46'0 0.0
2015-Jul-30 08:32N 35°32' E 139°46'0 0.0
2015-Jul-30 07:32N 35°32' E 139°46'0 0.5
2015-Jul-30 06:33N 35°31' E 139°46'4 4.2
2015-Jul-30 05:33N 35°27' E 139°45'6 5.8
2015-Jul-30 04:33N 35°30' E 139°51'7 7.1
2015-Jul-30 03:33N 35°36' E 139°56'5 4.7
2015-Jul-30 02:30N 35°41' E 139°56'0 0.0
2015-Jul-30 01:33N 35°41' E 139°56'0 0.0
2015-Jul-30 00:33N 35°41' E 139°56'0 0.0
2015-Jul-29 23:33N 35°41' E 139°56'2 2.2
2015-Jul-29 22:33N 35°39' E 139°58'4 3.6
2015-Jul-29 21:28N 35°36' E 139°55'0 0.1
2015-Jul-29 20:31N 35°36' E 139°55'0 0.0
2015-Jul-29 19:31N 35°36' E 139°55'0 0.0
2015-Jul-29 18:28N 35°36' E 139°55'0 0.0
2015-Jul-29 17:31N 35°36' E 139°55'0 0.0
2015-Jul-29 16:31N 35°36' E 139°55'0 0.0
2015-Jul-29 15:31N 35°36' E 139°55'0 0.0
2015-Jul-29 14:31N 35°36' E 139°55'0 0.0
2015-Jul-29 13:31N 35°36' E 139°55'2 1.9
2015-Jul-29 12:33N 35°34' E 139°54'9 9.5
2015-Jul-29 11:33N 35°27' E 139°46'6 5.9
2015-Jul-29 10:33N 35°24' E 139°40'0 0.0
2015-Jul-29 09:33N 35°24' E 139°40'0 0.0
2015-Jul-29 08:33N 35°24' E 139°40'0 0.0
2015-Jul-29 07:33N 35°24' E 139°40'0 0.0
2015-Jul-29 06:33N 35°24' E 139°40'0 0.0
2015-Jul-29 05:33N 35°24' E 139°40'0 0.5
2015-Jul-29 04:33N 35°24' E 139°40'9 9.1
2015-Jul-29 03:33N 35°29' E 139°49'10 9.7
2015-Jul-29 02:33N 35°36' E 139°57'4 4.4
2015-Jul-29 01:33N 35°41' E 139°56'0 0.0
2015-Jul-29 00:33N 35°41' E 139°56'0 0.0
2015-Jul-28 23:33N 35°41' E 139°56'0 0.0
2015-Jul-28 22:33N 35°41' E 139°56'2 2.2
2015-Jul-28 21:33N 35°39' E 139°58'4 3.7
2015-Jul-28 20:24N 35°35' E 139°55'0 0.0
2015-Jul-28 19:33N 35°35' E 139°55'0 0.1
2015-Jul-28 18:33N 35°35' E 139°55'0 0.0
2015-Jul-28 17:33N 35°35' E 139°55'0 0.0
2015-Jul-28 16:33N 35°35' E 139°55'0 0.0
2015-Jul-28 15:27N 35°35' E 139°55'0 0.0
2015-Jul-28 14:30N 35°35' E 139°55'0 0.0
2015-Jul-28 13:33N 35°35' E 139°55'0 0.0
2015-Jul-28 12:33N 35°35' E 139°55'4 4.1
2015-Jul-28 11:34N 35°32' E 139°52'5 4.6
2015-Jul-28 10:31N 35°31' E 139°46'0 0.0
2015-Jul-28 09:31N 35°31' E 139°46'0 0.0
2015-Jul-28 08:31N 35°31' E 139°46'0 0.0
2015-Jul-28 07:28N 35°31' E 139°46'0 0.0
2015-Jul-28 06:31N 35°31' E 139°46'0 0.0
2015-Jul-28 05:31N 35°31' E 139°46'5 4.8
2015-Jul-28 04:33N 35°27' E 139°44'10 9.9
2015-Jul-28 03:33N 35°33' E 139°54'8 8.0
2015-Jul-28 02:33N 35°40' E 139°57'0 0.1
2015-Jul-28 01:27N 35°41' E 139°56'0 0.0
2015-Jul-28 00:33N 35°41' E 139°56'0 0.0
2015-Jul-27 23:27N 35°41' E 139°56'0 0.0
2015-Jul-27 22:33N 35°41' E 139°56'3 2.6
2015-Jul-27 21:33N 35°39' E 139°58'4 4.0
2015-Jul-27 20:31N 35°36' E 139°55'0 0.0
2015-Jul-27 19:31N 35°36' E 139°55'0 0.0
2015-Jul-27 18:31N 35°36' E 139°55'0 0.0
2015-Jul-27 17:31N 35°36' E 139°55'0 0.0
2015-Jul-27 16:31N 35°36' E 139°55'0 0.0
2015-Jul-27 15:31N 35°36' E 139°55'0 0.0
2015-Jul-27 14:31N 35°36' E 139°55'0 0.0
2015-Jul-27 13:28N 35°36' E 139°55'0 0.0
2015-Jul-27 12:31N 35°36' E 139°55'0 0.0
2015-Jul-27 11:33N 35°36' E 139°55'8 8.4
2015-Jul-27 10:33N 35°29' E 139°48'8 8.5
2015-Jul-27 09:33N 35°24' E 139°40'0 0.4
2015-Jul-27 08:31N 35°24' E 139°40'0 0.0
2015-Jul-27 07:31N 35°24' E 139°40'0 0.0
2015-Jul-27 06:31N 35°24' E 139°40'0 0.0
2015-Jul-27 05:31N 35°24' E 139°40'3 2.9
2015-Jul-27 04:33N 35°25' E 139°43'9 9.0
2015-Jul-27 03:33N 35°30' E 139°52'9 9.1
2015-Jul-27 02:33N 35°38' E 139°58'3 2.8
2015-Jul-27 01:25N 35°41' E 139°56'0 0.0
2015-Jul-27 00:28N 35°41' E 139°56'0 0.0
2015-Jul-26 23:28N 35°41' E 139°56'0 0.0
2015-Jul-26 22:25N 35°41' E 139°56'2 2.2
2015-Jul-26 21:33N 35°39' E 139°58'4 3.9
2015-Jul-26 20:33N 35°36' E 139°55'0 0.0
2015-Jul-26 19:33N 35°36' E 139°55'0 0.0
2015-Jul-26 18:33N 35°36' E 139°55'0 0.0
2015-Jul-26 17:33N 35°36' E 139°55'0 0.0
2015-Jul-26 16:33N 35°36' E 139°55'0 0.0
2015-Jul-26 15:33N 35°36' E 139°55'0 0.0
2015-Jul-26 14:30N 35°36' E 139°55'0 0.1
2015-Jul-26 13:33N 35°36' E 139°55'0 0.0
2015-Jul-26 12:33N 35°36' E 139°55'8 7.6
2015-Jul-26 11:33N 35°32' E 140°03'0 0.1
2015-Jul-26 10:28N 35°32' E 140°03'0 0.0
2015-Jul-26 09:31N 35°32' E 140°03'0 0.0
2015-Jul-26 08:31N 35°32' E 140°03'0 0.0
2015-Jul-26 07:28N 35°32' E 140°03'2 1.7
2015-Jul-26 06:33N 35°32' E 140°02'0 0.0
2015-Jul-26 05:32N 35°32' E 140°02'0 0.0
2015-Jul-26 04:32N 35°32' E 140°02'0 0.0
2015-Jul-26 03:11N 35°32' E 140°02'0 0.0
2015-Jul-26 02:32N 35°32' E 140°02'0 0.0
2015-Jul-26 01:29N 35°32' E 140°02'0 0.0
2015-Jul-26 00:29N 35°32' E 140°02'0 0.0
2015-Jul-25 23:29N 35°32' E 140°02'0 0.0
2015-Jul-25 22:05N 35°32' E 140°02'0 0.0
2015-Jul-25 21:23N 35°32' E 140°02'0 0.0
2015-Jul-25 20:32N 35°32' E 140°02'0 0.0
2015-Jul-25 19:32N 35°32' E 140°02'0 0.0
2015-Jul-25 18:32N 35°32' E 140°02'0 0.0
2015-Jul-25 17:32N 35°32' E 140°02'0 0.0
2015-Jul-25 16:32N 35°32' E 140°02'0 0.0
2015-Jul-25 15:32N 35°32' E 140°02'0 0.0
2015-Jul-25 14:32N 35°32' E 140°02'0 0.0
2015-Jul-25 13:32N 35°32' E 140°02'0 0.0
2015-Jul-25 12:32N 35°32' E 140°02'2 2.0
2015-Jul-25 11:33N 35°34' E 139°60'7 6.8
2015-Jul-25 10:30N 35°41' E 139°56'0 0.0
2015-Jul-25 09:30N 35°41' E 139°56'0 0.0
2015-Jul-25 08:18N 35°41' E 139°56'0 0.0
2015-Jul-25 07:24N 35°41' E 139°56'2 2.2
2015-Jul-25 06:33N 35°39' E 139°58'9 8.7
2015-Jul-25 05:33N 35°32' E 139°52'10 9.6
2015-Jul-25 04:33N 35°25' E 139°43'3 3.2
2015-Jul-25 03:33N 35°24' E 139°40'0 0.0
2015-Jul-25 02:33N 35°24' E 139°40'0 0.0
2015-Jul-25 01:33N 35°24' E 139°40'0 0.0
2015-Jul-25 00:33N 35°24' E 139°40'0 0.2
2015-Jul-24 23:33N 35°24' E 139°40'4 4.1
2015-Jul-24 22:33N 35°26' E 139°44'10 9.9
2015-Jul-24 21:33N 35°32' E 139°53'9 9.1
2015-Jul-24 20:33N 35°40' E 139°59'1 0.3
2015-Jul-24 18:32N 35°41' E 139°59'0 0.0
2015-Jul-24 17:32N 35°41' E 139°59'0 0.0
2015-Jul-24 15:26N 35°41' E 139°59'0 0.0
2015-Jul-24 14:32N 35°41' E 139°59'0 0.0
2015-Jul-24 13:32N 35°41' E 139°59'0 0.0
2015-Jul-24 12:20N 35°41' E 139°59'0 0.0
2015-Jul-24 11:32N 35°41' E 139°59'0 0.0
2015-Jul-24 10:32N 35°41' E 139°59'0 0.0
2015-Jul-24 09:32N 35°41' E 139°59'0 0.0
2015-Jul-24 08:32N 35°41' E 139°59'0 0.0
2015-Jul-24 07:32N 35°41' E 139°59'  
Track history (hours):
 
Tides and Currents Weather Stations Pressure Air Temp Water Temp Dewpoint Dewpoint Depression Visibility Wind Speed Wind Dir Waves Ship Positions

Shokyu Maru

Last reported at 2015-Aug-03 06:31 UTC. Time now 2015-Aug-03 06:38 UTC.
Position N 35°28' E 140°01'.

Length 91 m; draft 3.8 m.

Type: Tanker. MMSI: 431000253.

Date/timePositionNaut miles runAvg speedWind from/ knotsBaromVisibWave heightAir tempDewpointWater temp
2015-Aug-03 06:31N 35°28' E 140°01'0 0.0
2015-Aug-03 05:31N 35°28' E 140°01'0 0.0
2015-Aug-03 04:25N 35°28' E 140°01'4 4.5
2015-Aug-03 03:33N 35°32' E 139°59'9 8.7
2015-Aug-03 02:33N 35°40' E 139°57'0 0.1
2015-Aug-03 01:07N 35°41' E 139°56'0 0.0
2015-Aug-03 00:31N 35°41' E 139°56'0 0.0
2015-Aug-02 23:31N 35°41' E 139°56'0 0.0
2015-Aug-02 22:07N 35°41' E 139°56'2 3.6
2015-Aug-02 21:33N 35°39' E 139°58'4 4.0
2015-Aug-02 20:33N 35°36' E 139°55'0 0.0
2015-Aug-02 19:24N 35°36' E 139°55'0 0.0
2015-Aug-02 18:27N 35°36' E 139°55'0 0.0
2015-Aug-02 17:33N 35°36' E 139°55'0 0.0
2015-Aug-02 16:30N 35°36' E 139°55'0 0.0
2015-Aug-02 15:33N 35°36' E 139°55'0 0.0
2015-Aug-02 14:33N 35°36' E 139°55'0 0.0
2015-Aug-02 13:33N 35°36' E 139°55'0 0.0
2015-Aug-02 12:33N 35°36' E 139°55'0 0.0
2015-Aug-02 11:33N 35°36' E 139°55'0 0.0
2015-Aug-02 10:33N 35°36' E 139°55'5 5.3
2015-Aug-02 09:33N 35°31' E 139°58'3 2.9
2015-Aug-02 08:31N 35°29' E 140°01'0 0.0
2015-Aug-02 07:31N 35°29' E 140°01'0 0.0
2015-Aug-02 06:31N 35°29' E 140°01'0 0.0
2015-Aug-02 05:22N 35°29' E 140°01'0 0.0
2015-Aug-02 04:33N 35°29' E 140°01'1 0.8
2015-Aug-02 03:33N 35°29' E 140°00'7 7.5
2015-Aug-02 02:33N 35°36' E 139°57'4 3.9
2015-Aug-02 01:28N 35°41' E 139°56'0 0.0
2015-Aug-02 00:28N 35°41' E 139°56'0 0.0
2015-Aug-01 23:25N 35°41' E 139°56'0 0.0
2015-Aug-01 22:28N 35°41' E 139°56'2 2.2
2015-Aug-01 21:33N 35°39' E 139°58'4 4.1
2015-Aug-01 20:33N 35°36' E 139°55'0 0.0
2015-Aug-01 19:33N 35°36' E 139°55'0 0.0
2015-Aug-01 18:33N 35°36' E 139°55'0 0.0
2015-Aug-01 17:33N 35°36' E 139°55'0 0.0
2015-Aug-01 16:33N 35°36' E 139°55'8 7.6
2015-Aug-01 15:33N 35°30' E 139°48'2 2.1
2015-Aug-01 14:31N 35°31' E 139°46'0 0.0
2015-Aug-01 13:31N 35°31' E 139°46'0 0.0
2015-Aug-01 12:28N 35°31' E 139°46'0 0.0
2015-Aug-01 11:31N 35°31' E 139°46'0 0.0
2015-Aug-01 10:28N 35°31' E 139°46'0 0.0
2015-Aug-01 09:31N 35°31' E 139°46'0 0.0
2015-Aug-01 08:31N 35°31' E 139°46'0 0.0
2015-Aug-01 07:31N 35°31' E 139°46'5 4.9
2015-Aug-01 06:33N 35°27' E 139°43'6 5.4
2015-Aug-01 05:32N 35°29' E 139°49'0 0.0
2015-Aug-01 04:32N 35°29' E 139°49'0 0.1
2015-Aug-01 03:33N 35°29' E 139°49'8 8.5
2015-Aug-01 02:33N 35°35' E 139°56'5 5.2
2015-Aug-01 01:32N 35°41' E 139°56'0 0.0
2015-Aug-01 00:17N 35°41' E 139°56'0 0.0
2015-Jul-31 23:30N 35°41' E 139°56'0 0.0
2015-Jul-31 22:12N 35°41' E 139°56'2 3.5
2015-Jul-31 21:33N 35°39' E 139°58'4 3.7
2015-Jul-31 20:31N 35°36' E 139°55'0 0.0
2015-Jul-31 19:31N 35°36' E 139°55'0 0.0
2015-Jul-31 18:28N 35°36' E 139°55'0 0.1
2015-Jul-31 17:28N 35°36' E 139°55'0 0.0
2015-Jul-31 16:31N 35°36' E 139°55'0 0.0
2015-Jul-31 15:28N 35°36' E 139°55'0 0.0
2015-Jul-31 14:28N 35°36' E 139°55'0 0.0
2015-Jul-31 13:28N 35°36' E 139°55'0 0.0
2015-Jul-31 12:28N 35°36' E 139°55'0 0.0
2015-Jul-31 11:28N 35°36' E 139°55'0 0.2
2015-Jul-31 10:33N 35°35' E 139°56'8 7.4
2015-Jul-31 09:28N 35°29' E 140°01'0 0.0
2015-Jul-31 08:28N 35°29' E 140°01'0 0.0
2015-Jul-31 07:28N 35°29' E 140°01'0 0.0
2015-Jul-31 06:28N 35°29' E 140°01'0 0.0
2015-Jul-31 04:22N 35°29' E 140°01'3 3.3
2015-Jul-31 03:33N 35°31' E 139°58'8 7.8
2015-Jul-31 02:33N 35°38' E 139°58'3 2.7
2015-Jul-31 01:32N 35°41' E 139°56'0 0.0
2015-Jul-30 23:20N 35°41' E 139°56'0 0.0
2015-Jul-30 22:08N 35°41' E 139°56'2 3.7
2015-Jul-30 21:33N 35°39' E 139°58'4 3.8
2015-Jul-30 20:24N 35°35' E 139°55'0 0.0
2015-Jul-30 19:33N 35°35' E 139°55'0 0.0
2015-Jul-30 18:33N 35°35' E 139°55'0 0.0
2015-Jul-30 17:33N 35°35' E 139°55'0 0.0
2015-Jul-30 16:33N 35°35' E 139°55'0 0.0
2015-Jul-30 15:33N 35°35' E 139°55'0 0.0
2015-Jul-30 14:33N 35°35' E 139°55'0 0.0
2015-Jul-30 13:30N 35°35' E 139°55'3 2.8
2015-Jul-30 12:33N 35°33' E 139°53'6 5.8
2015-Jul-30 11:32N 35°32' E 139°46'0 0.0
2015-Jul-30 10:32N 35°32' E 139°46'0 0.0
2015-Jul-30 09:29N 35°32' E 139°46'0 0.0
2015-Jul-30 08:32N 35°32' E 139°46'0 0.0
2015-Jul-30 07:32N 35°32' E 139°46'0 0.5
2015-Jul-30 06:33N 35°31' E 139°46'4 4.2
2015-Jul-30 05:33N 35°27' E 139°45'6 5.8
2015-Jul-30 04:33N 35°30' E 139°51'7 7.1
2015-Jul-30 03:33N 35°36' E 139°56'5 4.7
2015-Jul-30 02:30N 35°41' E 139°56'0 0.0
2015-Jul-30 01:33N 35°41' E 139°56'0 0.0
2015-Jul-30 00:33N 35°41' E 139°56'0 0.0
2015-Jul-29 23:33N 35°41' E 139°56'2 2.2
2015-Jul-29 22:33N 35°39' E 139°58'4 3.6
2015-Jul-29 21:28N 35°36' E 139°55'0 0.1
2015-Jul-29 20:31N 35°36' E 139°55'0 0.0
2015-Jul-29 19:31N 35°36' E 139°55'0 0.0
2015-Jul-29 18:28N 35°36' E 139°55'0 0.0
2015-Jul-29 17:31N 35°36' E 139°55'0 0.0
2015-Jul-29 16:31N 35°36' E 139°55'0 0.0
2015-Jul-29 15:31N 35°36' E 139°55'0 0.0
2015-Jul-29 14:31N 35°36' E 139°55'0 0.0
2015-Jul-29 13:31N 35°36' E 139°55'2 1.9
2015-Jul-29 12:33N 35°34' E 139°54'9 9.5
2015-Jul-29 11:33N 35°27' E 139°46'6 5.9
2015-Jul-29 10:33N 35°24' E 139°40'0 0.0
2015-Jul-29 09:33N 35°24' E 139°40'0 0.0
2015-Jul-29 08:33N 35°24' E 139°40'0 0.0
2015-Jul-29 07:33N 35°24' E 139°40'0 0.0
2015-Jul-29 06:33N 35°24' E 139°40'0 0.0
2015-Jul-29 05:33N 35°24' E 139°40'0 0.5
2015-Jul-29 04:33N 35°24' E 139°40'9 9.1
2015-Jul-29 03:33N 35°29' E 139°49'10 9.7
2015-Jul-29 02:33N 35°36' E 139°57'4 4.4
2015-Jul-29 01:33N 35°41' E 139°56'0 0.0
2015-Jul-29 00:33N 35°41' E 139°56'0 0.0
2015-Jul-28 23:33N 35°41' E 139°56'0 0.0
2015-Jul-28 22:33N 35°41' E 139°56'2 2.2
2015-Jul-28 21:33N 35°39' E 139°58'4 3.7
2015-Jul-28 20:24N 35°35' E 139°55'0 0.0
2015-Jul-28 19:33N 35°35' E 139°55'0 0.1
2015-Jul-28 18:33N 35°35' E 139°55'0 0.0
2015-Jul-28 17:33N 35°35' E 139°55'0 0.0
2015-Jul-28 16:33N 35°35' E 139°55'0 0.0
2015-Jul-28 15:27N 35°35' E 139°55'0 0.0
2015-Jul-28 14:30N 35°35' E 139°55'0 0.0
2015-Jul-28 13:33N 35°35' E 139°55'0 0.0
2015-Jul-28 12:33N 35°35' E 139°55'4 4.1
2015-Jul-28 11:34N 35°32' E 139°52'5 4.6
2015-Jul-28 10:31N 35°31' E 139°46'0 0.0
2015-Jul-28 09:31N 35°31' E 139°46'0 0.0
2015-Jul-28 08:31N 35°31' E 139°46'0 0.0
2015-Jul-28 07:28N 35°31' E 139°46'0 0.0
2015-Jul-28 06:31N 35°31' E 139°46'0 0.0
2015-Jul-28 05:31N 35°31' E 139°46'5 4.8
2015-Jul-28 04:33N 35°27' E 139°44'10 9.9
2015-Jul-28 03:33N 35°33' E 139°54'8 8.0
2015-Jul-28 02:33N 35°40' E 139°57'0 0.1
2015-Jul-28 01:27N 35°41' E 139°56'0 0.0
2015-Jul-28 00:33N 35°41' E 139°56'0 0.0
2015-Jul-27 23:27N 35°41' E 139°56'0 0.0
2015-Jul-27 22:33N 35°41' E 139°56'3 2.6
2015-Jul-27 21:33N 35°39' E 139°58'4 4.0
2015-Jul-27 20:31N 35°36' E 139°55'0 0.0
2015-Jul-27 19:31N 35°36' E 139°55'0 0.0
2015-Jul-27 18:31N 35°36' E 139°55'0 0.0
2015-Jul-27 17:31N 35°36' E 139°55'0 0.0
2015-Jul-27 16:31N 35°36' E 139°55'0 0.0
2015-Jul-27 15:31N 35°36' E 139°55'0 0.0
2015-Jul-27 14:31N 35°36' E 139°55'0 0.0
2015-Jul-27 13:28N 35°36' E 139°55'0 0.0
2015-Jul-27 12:31N 35°36' E 139°55'0 0.0
2015-Jul-27 11:33N 35°36' E 139°55'8 8.4
2015-Jul-27 10:33N 35°29' E 139°48'8 8.5
2015-Jul-27 09:33N 35°24' E 139°40'0 0.4
2015-Jul-27 08:31N 35°24' E 139°40'0 0.0
2015-Jul-27 07:31N 35°24' E 139°40'0 0.0
2015-Jul-27 06:31N 35°24' E 139°40'0 0.0
2015-Jul-27 05:31N 35°24' E 139°40'3 2.9
2015-Jul-27 04:33N 35°25' E 139°43'9 9.0
2015-Jul-27 03:33N 35°30' E 139°52'9 9.1
2015-Jul-27 02:33N 35°38' E 139°58'3 2.8
2015-Jul-27 01:25N 35°41' E 139°56'0 0.0
2015-Jul-27 00:28N 35°41' E 139°56'0 0.0
2015-Jul-26 23:28N 35°41' E 139°56'0 0.0
2015-Jul-26 22:25N 35°41' E 139°56'2 2.2
2015-Jul-26 21:33N 35°39' E 139°58'4 3.9
2015-Jul-26 20:33N 35°36' E 139°55'0 0.0
2015-Jul-26 19:33N 35°36' E 139°55'0 0.0
2015-Jul-26 18:33N 35°36' E 139°55'0 0.0
2015-Jul-26 17:33N 35°36' E 139°55'0 0.0
2015-Jul-26 16:33N 35°36' E 139°55'0 0.0
2015-Jul-26 15:33N 35°36' E 139°55'0 0.0
2015-Jul-26 14:30N 35°36' E 139°55'0 0.1
2015-Jul-26 13:33N 35°36' E 139°55'0 0.0
2015-Jul-26 12:33N 35°36' E 139°55'8 7.6
2015-Jul-26 11:33N 35°32' E 140°03'0 0.1
2015-Jul-26 10:28N 35°32' E 140°03'0 0.0
2015-Jul-26 09:31N 35°32' E 140°03'0 0.0
2015-Jul-26 08:31N 35°32' E 140°03'0 0.0
2015-Jul-26 07:28N 35°32' E 140°03'2 1.7
2015-Jul-26 06:33N 35°32' E 140°02'0 0.0
2015-Jul-26 05:32N 35°32' E 140°02'0 0.0
2015-Jul-26 04:32N 35°32' E 140°02'0 0.0
2015-Jul-26 03:11N 35°32' E 140°02'0 0.0
2015-Jul-26 02:32N 35°32' E 140°02'0 0.0
2015-Jul-26 01:29N 35°32' E 140°02'0 0.0
2015-Jul-26 00:29N 35°32' E 140°02'0 0.0
2015-Jul-25 23:29N 35°32' E 140°02'0 0.0
2015-Jul-25 22:05N 35°32' E 140°02'0 0.0
2015-Jul-25 21:23N 35°32' E 140°02'0 0.0
2015-Jul-25 20:32N 35°32' E 140°02'0 0.0
2015-Jul-25 19:32N 35°32' E 140°02'0 0.0
2015-Jul-25 18:32N 35°32' E 140°02'0 0.0
2015-Jul-25 17:32N 35°32' E 140°02'0 0.0
2015-Jul-25 16:32N 35°32' E 140°02'0 0.0
2015-Jul-25 15:32N 35°32' E 140°02'0 0.0
2015-Jul-25 14:32N 35°32' E 140°02'0 0.0
2015-Jul-25 13:32N 35°32' E 140°02'0 0.0
2015-Jul-25 12:32N 35°32' E 140°02'2 2.0
2015-Jul-25 11:33N 35°34' E 139°60'7 6.8
2015-Jul-25 10:30N 35°41' E 139°56'0 0.0
2015-Jul-25 09:30N 35°41' E 139°56'0 0.0
2015-Jul-25 08:18N 35°41' E 139°56'0 0.0
2015-Jul-25 07:24N 35°41' E 139°56'2 2.2
2015-Jul-25 06:33N 35°39' E 139°58'9 8.7
2015-Jul-25 05:33N 35°32' E 139°52'10 9.6
2015-Jul-25 04:33N 35°25' E 139°43'3 3.2
2015-Jul-25 03:33N 35°24' E 139°40'0 0.0
2015-Jul-25 02:33N 35°24' E 139°40'0 0.0
2015-Jul-25 01:33N 35°24' E 139°40'0 0.0
2015-Jul-25 00:33N 35°24' E 139°40'0 0.2
2015-Jul-24 23:33N 35°24' E 139°40'4 4.1
2015-Jul-24 22:33N 35°26' E 139°44'10 9.9
2015-Jul-24 21:33N 35°32' E 139°53'9 9.1
2015-Jul-24 20:33N 35°40' E 139°59'1 0.3
2015-Jul-24 18:32N 35°41' E 139°59'0 0.0
2015-Jul-24 17:32N 35°41' E 139°59'0 0.0
2015-Jul-24 15:26N 35°41' E 139°59'0 0.0
2015-Jul-24 14:32N 35°41' E 139°59'0 0.0
2015-Jul-24 13:32N 35°41' E 139°59'0 0.0
2015-Jul-24 12:20N 35°41' E 139°59'0 0.0
2015-Jul-24 11:32N 35°41' E 139°59'0 0.0
2015-Jul-24 10:32N 35°41' E 139°59'0 0.0
2015-Jul-24 09:32N 35°41' E 139°59'0 0.0
2015-Jul-24 08:32N 35°41' E 139°59'0 0.0
2015-Jul-24 07:32N 35°41' E 139°59'  

Dump ship's entire track history